Time;durP1;ratioP1;P1;durP2;ratioP2;P2;SDS_P1;SDS_P2;PMS_P1;PMS_P2;Temp;Humidity;BMP_temperature;BMP_pressure;BME280_temperature;BME280_humidity;BME280_pressure;Samples;Min_cycle;Max_cycle;Signal;HPM_P1;HPM_P2
2023/10/09 00:01:44;;;;;;;12.32;2.90;;;;;;;8.76;100.00;93805.31;2119568;27;20027;-83
2023/10/09 00:02:45;;;;;;;14.85;3.17;;;;;;;8.73;100.00;93808.00;2114850;28;20102;-84
2023/10/09 00:03:52;;;;;;;17.58;3.78;;;;;;;8.69;100.00;93807.25;2118482;27;20073;-84
2023/10/09 00:04:56;;;;;;;8.73;2.80;;;;;;;8.55;100.00;93805.38;2117272;27;20039;-84
2023/10/09 00:05:58;;;;;;;15.82;3.42;;;;;;;8.55;100.00;93800.81;2116449;27;20122;-83
2023/10/09 00:06:59;;;;;;;13.73;3.78;;;;;;;8.63;100.00;93798.13;2110440;28;20032;-83
2023/10/09 00:08:03;;;;;;;14.93;2.97;;;;;;;8.70;100.00;93800.78;2112579;28;20027;-84
2023/10/09 00:10:35;;;;;;;9.30;2.40;;;;;;;8.76;100.00;93807.22;2111603;28;20421;-83
2023/10/09 00:11:41;;;;;;;10.60;3.05;;;;;;;8.89;100.00;93802.97;2111163;28;20096;-83
2023/10/09 00:12:43;;;;;;;11.75;2.88;;;;;;;8.80;100.00;93800.72;2115089;27;20532;-83
2023/10/09 00:13:57;;;;;;;12.75;3.22;;;;;;;8.84;100.00;93798.06;2109809;28;20039;-84
2023/10/09 00:15:08;;;;;;;12.65;2.72;;;;;;;8.79;100.00;93796.56;2102130;27;20382;-83
2023/10/09 00:16:15;;;;;;;11.77;3.47;;;;;;;8.85;100.00;93796.91;2116058;27;20055;-83
2023/10/09 00:17:17;;;;;;;13.88;3.35;;;;;;;8.81;100.00;93790.81;2101696;28;20024;-83
2023/10/09 00:18:28;;;;;;;9.98;3.38;;;;;;;8.80;100.00;93805.31;2102487;28;20024;-83
2023/10/09 00:19:33;;;;;;;11.85;2.80;;;;;;;8.74;100.00;93794.28;2121080;27;20491;-83
2023/10/09 00:20:42;;;;;;;9.05;2.72;;;;;;;8.77;100.00;93795.41;2109691;28;20439;-83
2023/10/09 00:21:45;;;;;;;12.18;3.13;;;;;;;8.64;100.00;93788.97;2107179;28;20028;-83
2023/10/09 00:22:47;;;;;;;17.08;3.63;;;;;;;8.68;100.00;93798.47;2114399;28;20561;-84
2023/10/09 00:23:53;;;;;;;12.02;2.95;;;;;;;8.64;100.00;93799.66;2097460;28;20394;-83
2023/10/09 00:25:10;;;;;;;12.45;3.05;;;;;;;8.64;100.00;93796.97;2097225;28;20109;-83
2023/10/09 00:26:16;;;;;;;14.40;3.47;;;;;;;8.71;100.00;93797.72;2105900;28;20020;-83
2023/10/09 00:27:21;;;;;;;8.45;3.28;;;;;;;8.71;100.00;93795.06;2100158;28;20055;-83
2023/10/09 00:28:23;;;;;;;10.65;3.03;;;;;;;8.59;100.00;93792.81;2106448;28;20035;-82
2023/10/09 00:29:34;;;;;;;10.07;3.15;;;;;;;8.68;100.00;93792.41;2106565;28;20042;-83
2023/10/09 00:30:41;;;;;;;10.48;3.10;;;;;;;8.54;100.00;93790.53;2110068;28;20020;-83
2023/10/09 00:31:49;;;;;;;12.82;3.08;;;;;;;8.47;100.00;93787.88;2097730;28;20025;-83
2023/10/09 00:33:09;;;;;;;14.90;3.63;;;;;;;8.63;100.00;93787.47;2112312;27;20161;-83
2023/10/09 00:34:18;;;;;;;12.90;3.67;;;;;;;8.63;100.00;93784.81;2108726;28;20020;-83
2023/10/09 00:36:50;;;;;;;17.30;3.83;;;;;;;8.51;100.00;93783.31;2122036;27;20034;-84
2023/10/09 00:37:54;;;;;;;13.50;3.72;;;;;;;8.47;100.00;93786.00;2114176;28;20060;-84
2023/10/09 00:38:59;;;;;;;15.02;3.83;;;;;;;8.49;100.00;93781.03;2102582;28;20020;-83
2023/10/09 00:40:12;;;;;;;9.25;3.05;;;;;;;8.53;100.00;93787.13;2101855;28;20024;-83
2023/10/09 00:41:19;;;;;;;14.18;4.43;;;;;;;8.48;100.00;93784.09;2111872;28;20024;-84
2023/10/09 00:42:33;;;;;;;10.73;3.60;;;;;;;8.40;100.00;93779.94;2101089;28;20083;-83
2023/10/09 00:43:36;;;;;;;11.57;3.05;;;;;;;8.36;100.00;93776.50;2106929;27;20027;-83
2023/10/09 00:44:42;;;;;;;11.70;3.42;;;;;;;8.39;100.00;93778.44;2105463;28;20032;-83
2023/10/09 00:45:44;;;;;;;20.70;3.10;;;;;;;8.45;100.00;93779.53;2106415;28;20028;-84
2023/10/09 00:46:47;;;;;;;13.07;3.88;;;;;;;8.48;100.00;93782.19;2118705;27;20023;-82
2023/10/09 00:47:48;;;;;;;13.45;4.05;;;;;;;8.49;100.00;93781.03;2122937;27;20042;-84
2023/10/09 00:48:55;;;;;;;9.90;3.42;;;;;;;8.47;100.00;93780.69;2120689;27;20031;-84
2023/10/09 00:50:08;;;;;;;13.57;2.92;;;;;;;8.44;100.00;93784.09;2120914;27;20046;-83
2023/10/09 00:51:16;;;;;;;13.65;3.30;;;;;;;8.37;100.00;93772.69;2118602;27;20106;-83
2023/10/09 00:52:24;;;;;;;16.38;3.35;;;;;;;8.44;100.00;93778.03;2121779;27;20107;-83
2023/10/09 00:53:32;;;;;;;14.23;3.13;;;;;;;8.40;100.00;93772.69;2114787;27;20045;-83
2023/10/09 00:54:41;;;;;;;11.23;3.45;;;;;;;8.46;100.00;93778.38;2115232;27;20142;-84
2023/10/09 00:55:45;;;;;;;12.40;3.53;;;;;;;8.41;100.00;93776.13;2110316;27;20023;-84
2023/10/09 00:56:57;;;;;;;12.57;3.53;;;;;;;8.39;100.00;93779.19;2097427;28;20478;-84
2023/10/09 00:57:59;;;;;;;7.53;3.13;;;;;;;8.39;100.00;93776.50;2106754;27;20024;-83
2023/10/09 00:59:08;;;;;;;10.38;3.05;;;;;;;8.45;100.00;93772.31;2103232;28;20520;-83
2023/10/09 01:00:26;;;;;;;14.57;3.40;;;;;;;8.48;100.00;93773.44;2109983;27;20035;-84
2023/10/09 01:01:40;;;;;;;16.08;3.83;;;;;;;8.40;100.00;93778.03;2110968;28;20107;-83
2023/10/09 01:02:43;;;;;;;12.57;3.60;;;;;;;8.51;100.00;93773.41;2101800;28;20032;-84
2023/10/09 01:03:45;;;;;;;10.57;3.50;;;;;;;8.45;100.00;93774.97;2099867;28;20040;-84
2023/10/09 01:04:46;;;;;;;13.57;3.53;;;;;;;8.46;100.00;93762.41;2114358;28;20574;-85
2023/10/09 01:07:15;;;;;;;10.80;3.35;;;;;;;8.36;100.00;93766.59;2104191;27;20036;-83
2023/10/09 01:08:28;;;;;;;10.18;3.10;;;;;;;8.37;100.00;93767.38;2116832;27;20023;-83
2023/10/09 01:09:36;;;;;;;12.20;2.58;;;;;;;8.29;100.00;93766.59;2099178;28;20082;-84
2023/10/09 01:11:08;;;;;;;14.15;3.05;;;;;;;8.28;100.00;93765.84;2105154;28;20024;-83
2023/10/09 01:12:16;;;;;;;12.77;4.03;;;;;;;8.37;100.00;93764.72;2112951;28;20035;-84
2023/10/09 01:13:38;;;;;;;10.90;3.70;;;;;;;8.44;100.00;93757.47;2110344;28;20034;-83
2023/10/09 01:14:43;;;;;;;16.38;3.05;;;;;;;8.32;100.00;93760.50;2108344;28;20142;-84
2023/10/09 01:15:45;;;;;;;9.10;3.40;;;;;;;8.42;100.00;93759.00;2110392;27;20055;-83
2023/10/09 01:16:47;;;;;;;11.95;3.00;;;;;;;8.35;100.00;93759.00;2106208;27;20427;-84
2023/10/09 01:17:48;;;;;;;13.35;2.90;;;;;;;8.26;100.00;93759.41;2118152;27;20035;-84
2023/10/09 01:18:57;;;;;;;14.75;3.95;;;;;;;8.26;100.00;93752.16;2121757;27;20031;-83
2023/10/09 01:20:03;;;;;;;9.77;3.10;;;;;;;8.19;100.00;93754.84;2116054;27;20043;-83
2023/10/09 01:21:04;;;;;;;17.27;3.20;;;;;;;8.19;100.00;93759.41;2109369;28;20039;-82
2023/10/09 01:22:12;;;;;;;6.63;2.75;;;;;;;8.17;100.00;93754.47;2102714;28;20153;-83
2023/10/09 01:23:13;;;;;;;12.07;3.40;;;;;;;8.24;100.00;93748.34;2090826;28;20463;-84
2023/10/09 01:24:16;;;;;;;12.20;3.72;;;;;;;8.33;100.00;93751.38;2096831;28;20040;-83
2023/10/09 01:25:17;;;;;;;14.40;3.30;;;;;;;8.25;100.00;93750.66;2106345;28;20469;-83
2023/10/09 01:26:19;;;;;;;8.23;3.00;;;;;;;8.33;100.00;93754.78;2105780;28;20035;-83
2023/10/09 01:27:32;;;;;;;11.35;3.72;;;;;;;8.29;100.00;93746.06;2106451;27;20022;-83
2023/10/09 01:28:33;;;;;;;18.30;3.23;;;;;;;8.33;100.00;93751.38;2112486;28;20023;-83
2023/10/09 01:29:35;;;;;;;10.45;3.10;;;;;;;8.24;100.00;93745.69;2106354;28;20454;-84
2023/10/09 01:30:41;;;;;;;20.58;3.42;;;;;;;8.21;100.00;93757.88;2105310;28;20500;-83
2023/10/09 01:31:56;;;;;;;12.43;3.13;;;;;;;8.18;100.00;93750.66;2122464;27;20019;-83
2023/10/09 01:32:59;;;;;;;14.38;3.22;;;;;;;8.22;100.00;93750.66;2120205;27;20027;-83
2023/10/09 01:34:09;;;;;;;12.75;3.00;;;;;;;8.22;100.00;93748.75;2109518;28;20024;-83
2023/10/09 01:35:23;;;;;;;15.30;3.97;;;;;;;8.20;100.00;93748.34;2112365;27;20023;-83
2023/10/09 01:36:31;;;;;;;10.27;3.60;;;;;;;8.21;100.00;93743.78;2107236;28;20024;-83
2023/10/09 01:37:36;;;;;;;13.48;3.13;;;;;;;8.33;100.00;93749.47;2111349;28;20020;-83
2023/10/09 01:38:40;;;;;;;14.00;3.80;;;;;;;8.27;100.00;93751.00;2105450;28;20119;-83
2023/10/09 01:39:42;;;;;;;10.68;3.17;;;;;;;8.25;100.00;93749.88;2097262;28;20031;-84
2023/10/09 01:40:44;;;;;;;14.30;3.15;;;;;;;8.21;100.00;93746.44;2105589;28;20795;-83
2023/10/09 01:41:46;;;;;;;11.70;2.78;;;;;;;8.16;100.00;93749.50;2105887;28;20028;-83
2023/10/09 01:42:47;;;;;;;14.85;3.38;;;;;;;8.10;100.00;93749.16;2099664;27;20025;-83
2023/10/09 01:43:51;;;;;;;8.40;2.80;;;;;;;8.15;100.00;93750.66;2121027;27;20499;-84
2023/10/09 01:44:52;;;;;;;8.88;2.65;;;;;;;7.99;100.00;93746.53;2120768;27;20047;-83
2023/10/09 01:45:53;;;;;;;14.82;2.67;;;;;;;7.97;100.00;93754.13;2113421;28;20027;-82
2023/10/09 01:46:56;;;;;;;10.40;3.10;;;;;;;8.02;100.00;93743.06;2104088;28;20039;-83
2023/10/09 01:47:58;;;;;;;12.30;3.55;;;;;;;7.96;100.00;93752.59;2096273;28;20029;-83
2023/10/09 01:49:08;;;;;;;12.07;2.35;;;;;;;8.00;100.00;93741.97;2105313;28;20036;-82
2023/10/09 01:50:14;;;;;;;13.02;2.95;;;;;;;8.15;100.00;93746.09;2100511;28;20065;-83
2023/10/09 01:51:18;;;;;;;12.88;3.58;;;;;;;8.07;100.00;93750.66;2110314;27;20023;-83
2023/10/09 01:52:20;;;;;;;11.95;3.08;;;;;;;8.14;100.00;93744.59;2117830;27;20028;-83
2023/10/09 01:53:25;;;;;;;9.65;2.92;;;;;;;8.15;100.00;93742.69;2110442;28;20070;-83
2023/10/09 01:54:36;;;;;;;10.98;2.92;;;;;;;8.16;100.00;93734.28;2113570;27;20015;-83
2023/10/09 01:55:40;;;;;;;12.07;3.15;;;;;;;8.01;100.00;93743.47;2114902;27;20026;-83
2023/10/09 01:56:46;;;;;;;8.10;2.88;;;;;;;7.98;100.00;93750.31;2114233;28;20024;-83
2023/10/09 01:57:47;;;;;;;9.38;2.50;;;;;;;8.08;100.00;93740.81;2110687;28;20680;-83
2023/10/09 01:58:50;;;;;;;13.55;3.13;;;;;;;8.11;100.00;93739.25;2105077;28;20024;-84
2023/10/09 01:59:55;;;;;;;8.65;2.58;;;;;;;8.05;100.00;93742.31;2102755;28;20082;-84
2023/10/09 02:00:56;;;;;;;6.18;2.70;;;;;;;8.09;100.00;93744.97;2106277;27;20023;-84
2023/10/09 02:02:10;;;;;;;9.93;2.92;;;;;;;8.15;100.00;93737.34;2120254;27;20027;-84
2023/10/09 02:03:23;;;;;;;9.93;2.60;;;;;;;8.22;100.00;93740.00;2117395;27;20026;-83
2023/10/09 02:04:24;;;;;;;11.60;2.58;;;;;;;8.23;100.00;93734.28;2116043;27;20020;-83
2023/10/09 02:05:26;;;;;;;14.40;3.53;;;;;;;8.15;100.00;93734.69;2111356;28;20043;-83
2023/10/09 02:06:28;;;;;;;11.05;2.70;;;;;;;8.02;100.00;93740.41;2105471;28;20015;-84
2023/10/09 02:07:33;;;;;;;11.30;3.08;;;;;;;8.12;100.00;93744.22;2107534;28;20028;-83
2023/10/09 02:08:37;;;;;;;12.27;2.38;;;;;;;8.20;100.00;93739.63;2105321;28;20024;-83
2023/10/09 02:09:45;;;;;;;14.05;3.03;;;;;;;8.03;100.00;93738.50;2105007;28;20020;-83
2023/10/09 02:10:48;;;;;;;7.63;2.38;;;;;;;8.01;100.00;93733.56;2114520;27;20027;-83
2023/10/09 02:11:51;;;;;;;8.45;2.45;;;;;;;7.94;100.00;93733.59;2110205;28;20035;-83
2023/10/09 02:12:59;;;;;;;9.43;3.25;;;;;;;7.94;100.00;93736.25;2101753;28;20044;-83
2023/10/09 02:14:00;;;;;;;10.40;2.88;;;;;;;7.95;100.00;93729.81;2105676;28;20024;-83
2023/10/09 02:15:15;;;;;;;8.18;2.90;;;;;;;7.92;100.00;93733.22;2099639;28;20028;-83
2023/10/09 02:16:28;;;;;;;8.82;2.83;;;;;;;7.93;100.00;93732.06;2095671;28;20362;-84
2023/10/09 02:17:29;;;;;;;8.43;2.58;;;;;;;7.86;100.00;93731.31;2100909;28;20051;-83
2023/10/09 02:19:34;;;;;;;6.95;2.30;;;;;;;7.94;100.00;93730.91;2118653;27;20023;-84
2023/10/09 02:20:37;;;;;;;12.15;4.30;;;;;;;7.94;100.00;93732.81;2120596;28;20022;-83
2023/10/09 02:23:40;;;;;;;;;;;;;;;7.17;100.00;93735.16;2148176;27;20121;-80
2023/10/09 02:25:20;;;;;;;7.50;2.47;;;;;;;7.23;100.00;93729.06;2126863;27;19911;-79
2023/10/09 02:26:33;;;;;;;8.80;2.63;;;;;;;7.26;100.00;93733.63;2120836;27;20037;-82
2023/10/09 02:27:40;;;;;;;10.82;3.42;;;;;;;7.27;100.00;93721.09;2132030;27;20025;-81
2023/10/09 02:28:43;;;;;;;10.80;2.83;;;;;;;7.32;100.00;93723.38;2121358;27;20023;-81
2023/10/09 02:29:44;;;;;;;9.50;2.67;;;;;;;7.46;100.00;93731.38;2121516;27;20031;-83
2023/10/09 02:30:48;;;;;;;9.13;2.63;;;;;;;7.50;100.00;93734.75;2120512;27;20118;-80
2023/10/09 02:32:01;;;;;;;10.02;3.00;;;;;;;7.39;100.00;93726.03;2119122;27;20031;-81
2023/10/09 02:33:09;;;;;;;11.60;2.90;;;;;;;7.33;100.00;93724.88;2126708;27;20072;-83
2023/10/09 02:34:10;;;;;;;8.95;3.28;;;;;;;7.13;100.00;93724.50;2118409;27;20020;-82
2023/10/09 02:36:31;;;;;;;16.02;2.70;;;;;;;7.29;100.00;93724.16;2120415;27;20023;-83
2023/10/09 02:37:32;;;;;;;7.57;2.20;;;;;;;7.17;100.00;93727.16;2130804;27;20050;-81
2023/10/09 02:38:35;;;;;;;8.63;2.45;;;;;;;7.18;100.00;93723.38;2126165;27;20066;-82
2023/10/09 02:39:43;;;;;;;6.25;2.60;;;;;;;7.15;100.00;93727.53;2111361;28;20418;-83
2023/10/09 02:41:04;;;;;;;7.47;2.88;;;;;;;7.18;100.00;93720.72;2114583;27;20564;-81
2023/10/09 02:42:23;;;;;;;9.45;2.88;;;;;;;7.14;100.00;93719.94;2118529;27;20018;-80
2023/10/09 02:43:25;;;;;;;10.82;2.90;;;;;;;7.22;100.00;93721.47;2124139;27;20020;-81
2023/10/09 02:44:30;;;;;;;8.45;2.90;;;;;;;7.02;100.00;93716.53;2116315;28;20042;-80
2023/10/09 02:45:35;;;;;;;14.82;2.60;;;;;;;7.10;100.00;93722.59;2096688;28;20075;-80
2023/10/09 02:46:36;;;;;;;7.05;2.42;;;;;;;7.20;100.00;93715.75;2110740;28;20031;-80
2023/10/09 02:47:39;;;;;;;6.35;2.50;;;;;;;7.24;100.00;93712.00;2115939;28;20016;-82
2023/10/09 02:48:48;;;;;;;7.97;2.53;;;;;;;7.25;100.00;93718.06;2120157;27;20056;-82
2023/10/09 02:49:49;;;;;;;14.45;2.58;;;;;;;7.26;100.00;93720.34;2111224;27;20412;-81
2023/10/09 02:50:50;;;;;;;7.07;2.80;;;;;;;7.22;100.00;93714.25;2116389;27;20164;-84
2023/10/09 02:51:53;;;;;;;6.50;2.40;;;;;;;7.34;100.00;93715.03;2106455;27;20032;-83
2023/10/09 02:53:00;;;;;;;9.30;2.90;;;;;;;7.36;100.00;93721.47;2111100;27;20031;-81
2023/10/09 02:54:18;;;;;;;9.07;3.13;;;;;;;7.43;100.00;93702.09;2121913;27;20019;-80
2023/10/09 02:55:30;;;;;;;10.40;2.70;;;;;;;7.38;100.00;93710.47;2116221;27;20068;-80
2023/10/09 02:56:37;;;;;;;11.32;2.67;;;;;;;7.27;100.00;93711.22;2116665;27;20368;-82
2023/10/09 02:57:41;;;;;;;7.25;2.63;;;;;;;7.35;100.00;93717.28;2120937;27;20114;-80
2023/10/09 02:58:43;;;;;;;9.52;2.63;;;;;;;7.27;100.00;93705.88;2112759;28;20023;-83
2023/10/09 02:59:44;;;;;;;11.73;2.97;;;;;;;7.28;100.00;93706.66;2112592;28;20485;-81
2023/10/09 03:00:46;;;;;;;15.57;3.75;;;;;;;7.17;100.00;93713.88;2112991;27;20050;-81
2023/10/09 03:01:49;;;;;;;11.00;2.80;;;;;;;7.16;100.00;93699.06;2116437;27;20024;-80
2023/10/09 03:02:50;;;;;;;8.23;2.53;;;;;;;7.23;100.00;93702.47;2119637;27;20061;-82
2023/10/09 03:03:51;;;;;;;10.70;2.95;;;;;;;7.28;100.00;93704.00;2120846;27;20027;-82
2023/10/09 03:04:55;;;;;;;10.02;3.03;;;;;;;7.21;100.00;93704.75;2120491;27;20583;-82
2023/10/09 03:05:56;;;;;;;13.32;2.70;;;;;;;7.23;100.00;93709.69;2121090;27;20027;-82
2023/10/09 03:06:57;;;;;;;8.50;2.47;;;;;;;7.38;100.00;93711.22;2112207;28;20044;-81
2023/10/09 03:07:59;;;;;;;8.13;2.60;;;;;;;7.39;100.00;93696.03;2106029;28;20107;-83
2023/10/09 03:09:01;;;;;;;13.55;3.60;;;;;;;7.52;100.00;93700.56;2111919;27;20055;-82
2023/10/09 03:10:09;;;;;;;7.22;2.60;;;;;;;7.43;100.00;93694.13;2115398;27;20137;-82
2023/10/09 03:11:13;;;;;;;6.65;2.47;;;;;;;7.36;100.00;93692.22;2116876;27;20114;-80
2023/10/09 03:12:16;;;;;;;9.57;2.63;;;;;;;7.49;100.00;93697.91;2109109;27;20015;-81
2023/10/09 03:13:19;;;;;;;12.43;3.13;;;;;;;7.40;100.00;93697.53;2105728;27;20024;-82
2023/10/09 03:14:24;;;;;;;15.18;3.25;;;;;;;7.40;100.00;93690.31;2115800;28;20539;-83
2023/10/09 03:15:25;;;;;;;11.50;2.78;;;;;;;7.35;100.00;93692.59;2123720;27;20019;-80
2023/10/09 03:16:27;;;;;;;11.93;2.92;;;;;;;7.36;100.00;93692.22;2114592;28;20111;-81
2023/10/09 03:17:28;;;;;;;9.50;2.60;;;;;;;7.33;100.00;93685.00;2121041;27;20426;-80
2023/10/09 03:18:30;;;;;;;9.43;2.65;;;;;;;7.34;100.00;93694.50;2116042;28;20437;-82
2023/10/09 03:19:38;;;;;;;10.05;2.95;;;;;;;7.35;100.00;93696.03;2097570;28;20028;-82
2023/10/09 03:20:40;;;;;;;7.72;2.45;;;;;;;7.40;100.00;93692.97;2104435;28;20016;-80
2023/10/09 03:21:46;;;;;;;6.63;2.75;;;;;;;7.48;100.00;93689.19;2096253;28;20091;-81
2023/10/09 03:22:48;;;;;;;10.13;3.63;;;;;;;7.57;100.00;93692.22;2112068;28;20020;-81
2023/10/09 03:23:49;;;;;;;10.23;2.85;;;;;;;7.53;100.00;93696.00;2103742;28;20786;-82
2023/10/09 03:24:52;;;;;;;13.60;2.95;;;;;;;7.60;100.00;93687.28;2103484;28;20034;-80
2023/10/09 03:25:53;;;;;;;11.00;2.70;;;;;;;7.55;100.00;93688.41;2104044;28;20016;-80
2023/10/09 03:26:57;;;;;;;12.65;2.67;;;;;;;7.58;100.00;93691.06;2099492;28;20021;-82
2023/10/09 03:27:58;;;;;;;10.63;3.30;;;;;;;7.46;100.00;93696.78;2092069;28;20044;-81
2023/10/09 03:29:01;;;;;;;10.05;2.92;;;;;;;7.53;100.00;93693.34;2098150;28;20021;-83
2023/10/09 03:30:05;;;;;;;10.18;2.80;;;;;;;7.56;100.00;93695.25;2099482;28;20024;-83
2023/10/09 03:31:06;;;;;;;5.60;2.53;;;;;;;7.68;100.00;93699.41;2102503;27;20015;-81
2023/10/09 03:32:08;;;;;;;12.23;2.75;;;;;;;7.66;100.00;93691.06;2115382;27;20020;-81
2023/10/09 03:33:09;;;;;;;8.70;2.53;;;;;;;7.64;100.00;93691.44;2111727;28;20036;-83
2023/10/09 03:34:10;;;;;;;12.63;3.72;;;;;;;7.63;100.00;93689.16;2106618;28;20044;-82
2023/10/09 03:35:16;;;;;;;9.45;2.83;;;;;;;7.73;100.00;93688.41;2094562;28;20052;-82
2023/10/09 03:36:19;;;;;;;8.18;3.17;;;;;;;7.70;100.00;93686.50;2083468;28;20025;-81
2023/10/09 03:37:33;;;;;;;10.43;2.60;;;;;;;7.80;100.00;93691.03;2099188;28;20505;-83
2023/10/09 03:38:38;;;;;;;9.70;2.50;;;;;;;7.78;100.00;93688.00;2102284;28;20029;-80
2023/10/09 03:39:42;;;;;;;9.65;3.22;;;;;;;7.75;100.00;93689.53;2098601;28;20025;-83
2023/10/09 03:40:44;;;;;;;8.95;2.47;;;;;;;7.65;100.00;93689.56;2099688;28;20016;-82
2023/10/09 03:41:47;;;;;;;7.40;2.20;;;;;;;7.74;100.00;93685.34;2106469;28;20028;-82
2023/10/09 03:42:48;;;;;;;10.18;2.70;;;;;;;7.77;100.00;93686.47;2098237;28;20476;-82
2023/10/09 03:43:50;;;;;;;8.73;2.70;;;;;;;7.76;100.00;93683.03;2084861;28;20033;-81
2023/10/09 03:44:53;;;;;;;11.73;2.78;;;;;;;7.82;100.00;93686.09;2097972;28;20026;-81
2023/10/09 03:45:54;;;;;;;6.55;2.40;;;;;;;7.83;100.00;93685.72;2089864;28;20045;-82
2023/10/09 03:46:55;;;;;;;6.55;2.70;;;;;;;7.84;100.00;93683.81;2102182;28;20032;-80
2023/10/09 03:48:11;;;;;;;9.40;3.03;;;;;;;7.86;100.00;93686.06;2104645;28;20078;-80
2023/10/09 03:49:20;;;;;;;8.50;2.95;;;;;;;7.84;100.00;93686.47;2094402;28;20165;-83
2023/10/09 03:50:26;;;;;;;8.65;2.72;;;;;;;7.76;100.00;93684.94;2093893;28;20032;-82
2023/10/09 03:51:27;;;;;;;11.30;3.10;;;;;;;7.87;100.00;93685.69;2104907;28;20057;-82
2023/10/09 03:52:30;;;;;;;10.57;2.92;;;;;;;7.97;100.00;93682.25;2112672;27;20030;-84
2023/10/09 03:53:31;;;;;;;9.57;2.55;;;;;;;7.99;100.00;93682.63;2107660;28;20103;-80
2023/10/09 03:54:35;;;;;;;7.43;3.33;;;;;;;7.92;100.00;93687.22;2108852;28;20076;-82
2023/10/09 03:55:38;;;;;;;12.15;3.17;;;;;;;7.93;100.00;93689.47;2099678;28;20044;-83
2023/10/09 03:56:38;;;;;;;8.07;3.25;;;;;;;7.86;100.00;93686.84;2097798;28;20024;-80
2023/10/09 03:57:40;;;;;;;10.32;2.50;;;;;;;7.94;100.00;93691.00;2101546;28;20052;-82
2023/10/09 03:58:54;;;;;;;6.20;2.95;;;;;;;7.90;100.00;93684.16;2108332;28;20039;-82
2023/10/09 03:59:56;;;;;;;12.38;2.95;;;;;;;7.86;100.00;93678.88;2108208;28;20028;-81
2023/10/09 04:00:57;;;;;;;11.70;2.80;;;;;;;7.80;100.00;93688.38;2090098;28;20422;-82
2023/10/09 04:01:58;;;;;;;11.68;2.70;;;;;;;7.88;100.00;93684.56;2099392;28;20056;-82
2023/10/09 04:02:59;;;;;;;9.00;2.72;;;;;;;7.89;100.00;93680.00;2106380;28;20172;-81
2023/10/09 04:04:00;;;;;;;11.23;3.55;;;;;;;7.85;100.00;93680.00;2095736;28;20437;-81
2023/10/09 04:05:01;;;;;;;12.43;2.08;;;;;;;7.95;100.00;93681.88;2089582;28;20409;-81
2023/10/09 04:06:04;;;;;;;8.90;2.65;;;;;;;7.92;100.00;93681.88;2104565;28;20050;-81
2023/10/09 04:07:07;;;;;;;8.45;2.65;;;;;;;7.95;100.00;93687.22;2098196;28;20028;-82
2023/10/09 04:08:16;;;;;;;6.75;2.50;;;;;;;7.87;100.00;93685.69;2102614;28;20058;-81
2023/10/09 04:10:43;;;;;;;10.00;2.88;;;;;;;7.93;100.00;93681.50;2109481;28;20032;-82
2023/10/09 04:11:57;;;;;;;10.77;2.88;;;;;;;7.95;100.00;93678.47;2109365;28;20020;-82
2023/10/09 04:12:58;;;;;;;7.30;2.72;;;;;;;7.96;100.00;93682.63;2101580;28;20120;-80
2023/10/09 04:14:01;;;;;;;7.75;2.55;;;;;;;8.15;100.00;93678.78;2105861;28;20653;-80
2023/10/09 04:15:05;;;;;;;6.85;2.67;;;;;;;8.23;100.00;93681.03;2095722;28;20025;-81
2023/10/09 04:16:33;;;;;;;7.75;2.67;;;;;;;8.22;100.00;93676.09;2099711;27;20045;-80
2023/10/09 04:17:33;;;;;;;6.00;2.10;;;;;;;8.26;100.00;93676.84;2111590;27;20047;-83
2023/10/09 04:18:36;;;;;;;11.90;2.95;;;;;;;8.28;100.00;93669.97;2106346;28;20074;-79
2023/10/09 04:19:47;;;;;;;7.45;2.78;;;;;;;8.27;100.00;93675.69;2094122;28;20028;-82
2023/10/09 04:22:09;;;;;;;10.45;2.65;;;;;;;8.24;100.00;93674.53;2095758;28;20087;-83
2023/10/09 04:23:16;;;;;;;7.10;2.10;;;;;;;8.25;100.00;93678.75;2097699;28;20072;-80
2023/10/09 04:25:28;;;;;;;10.75;2.95;;;;;;;8.22;100.00;93676.09;2097995;28;20024;-81
2023/10/09 04:26:34;;;;;;;10.45;2.45;;;;;;;8.18;100.00;93668.13;2105783;28;20024;-81
2023/10/09 04:27:37;;;;;;;4.85;2.15;;;;;;;8.20;100.00;93673.78;2099942;28;20021;-82
2023/10/09 04:28:42;;;;;;;11.15;2.90;;;;;;;8.11;100.00;93678.03;2105462;28;20791;-83
2023/10/09 04:29:49;;;;;;;7.53;2.70;;;;;;;8.22;100.00;93676.09;2090757;28;20033;-83
2023/10/09 04:30:53;;;;;;;9.40;2.22;;;;;;;8.18;100.00;93670.03;2095025;28;20301;-82
2023/10/09 04:32:00;;;;;;;9.00;2.20;;;;;;;8.17;100.00;93679.16;2097095;28;20028;-82
2023/10/09 04:33:11;;;;;;;5.25;2.08;;;;;;;8.32;100.00;93677.94;2101657;27;20480;-81
2023/10/09 04:35:26;;;;;;;8.48;2.47;;;;;;;8.22;100.00;93671.53;2106767;27;20020;-81
2023/10/09 04:36:46;;;;;;;9.55;2.00;;;;;;;8.19;100.00;93676.84;2101905;28;20025;-82
2023/10/09 04:37:52;;;;;;;13.00;2.42;;;;;;;8.19;100.00;93668.88;2094229;28;20508;-82
2023/10/09 04:40:41;;;;;;;9.13;2.63;;;;;;;8.32;100.00;93669.97;2107002;28;20128;-81
2023/10/09 04:42:58;;;;;;;9.13;2.80;;;;;;;8.23;100.00;93670.38;2106532;28;20019;-81
2023/10/09 04:45:44;;;;;;;9.88;2.88;;;;;;;8.16;100.00;93670.38;2100270;28;20433;-81
2023/10/09 04:48:32;;;;;;;7.35;2.22;;;;;;;8.20;100.00;93671.13;2076538;28;20041;-82
2023/10/09 04:52:18;;;;;;;6.70;2.35;;;;;;;8.16;100.00;93666.97;2080765;28;20029;-83
2023/10/09 04:54:38;;;;;;;11.20;2.90;;;;;;;8.35;100.00;93663.09;2093696;28;20382;-81
2023/10/09 04:55:44;;;;;;;13.27;2.65;;;;;;;8.40;100.00;93668.81;2122344;27;20023;-81
2023/10/09 04:56:54;;;;;;;10.70;2.88;;;;;;;8.50;100.00;93662.66;2099839;28;20066;-85
2023/10/09 04:58:01;;;;;;;7.07;2.50;;;;;;;8.52;100.00;93657.72;2091740;28;20025;-82
2023/10/09 04:59:08;;;;;;;9.63;2.50;;;;;;;8.47;100.00;93660.78;2099302;28;20036;-83
2023/10/09 05:00:22;;;;;;;12.63;2.55;;;;;;;8.57;100.00;93657.31;2090774;28;20025;-81
2023/10/09 05:01:35;;;;;;;9.48;2.40;;;;;;;8.53;100.00;93663.81;2096542;28;20042;-82
2023/10/09 05:02:37;;;;;;;12.15;2.50;;;;;;;8.47;100.00;93658.13;2097319;28;20028;-80
2023/10/09 05:04:41;;;;;;;7.18;2.38;;;;;;;8.47;100.00;93662.69;2109197;28;20019;-82
2023/10/09 05:06:54;;;;;;;6.95;2.78;;;;;;;8.36;100.00;93660.06;2093938;28;20493;-81
2023/10/09 05:07:56;;;;;;;9.75;2.30;;;;;;;8.40;100.00;93666.16;2100232;28;20093;-81
2023/10/09 05:09:07;;;;;;;8.10;2.40;;;;;;;8.46;100.00;93664.59;2091044;28;20022;-80
2023/10/09 05:10:17;;;;;;;11.02;2.08;;;;;;;8.58;100.00;93666.06;2096518;28;20024;-82
2023/10/09 05:12:46;;;;;;;7.35;2.50;;;;;;;8.55;100.00;93670.25;2116091;27;20058;-81
2023/10/09 05:14:11;;;;;;;7.63;1.92;;;;;;;8.65;100.00;93662.59;2115006;27;20023;-82
2023/10/09 05:15:09;;;;;;;7.22;1.67;;;;;;;8.72;100.00;93667.88;2111652;27;20031;-83
2023/10/09 05:16:26;;;;;;;9.75;2.08;;;;;;;8.83;100.00;93672.00;2104708;28;20024;-81
2023/10/09 05:17:27;;;;;;;9.02;2.33;;;;;;;8.79;100.00;93673.19;2097533;28;20017;-83
2023/10/09 05:18:36;;;;;;;11.75;2.50;;;;;;;8.90;100.00;93675.78;2097140;28;20043;-82
2023/10/09 05:19:54;;;;;;;11.52;2.20;;;;;;;8.84;100.00;93672.75;2107794;28;20020;-82
2023/10/09 05:20:55;;;;;;;13.18;2.53;;;;;;;8.90;100.00;93673.09;2100269;28;20137;-82
2023/10/09 05:22:04;;;;;;;8.73;2.70;;;;;;;8.99;100.00;93676.09;2091498;28;20054;-81
2023/10/09 05:23:23;;;;;;;9.48;2.75;;;;;;;8.91;100.00;93664.72;2103366;28;20045;-82
2023/10/09 05:24:26;;;;;;;7.82;2.10;;;;;;;8.93;100.00;93669.66;2093978;28;20024;-81
2023/10/09 05:26:51;;;;;;;10.70;2.40;;;;;;;8.98;100.00;93663.91;2108861;28;20034;-82
2023/10/09 05:27:52;;;;;;;6.93;2.58;;;;;;;9.04;100.00;93671.13;2106606;27;20133;-80
2023/10/09 05:28:58;;;;;;;12.45;2.72;;;;;;;9.04;100.00;93665.00;2098548;28;20102;-81
2023/10/09 05:29:59;;;;;;;7.47;2.25;;;;;;;9.15;100.00;93662.28;2091923;28;20032;-81
2023/10/09 05:31:07;;;;;;;10.43;2.22;;;;;;;9.19;100.00;93666.44;2111789;28;20138;-82
2023/10/09 05:33:27;;;;;;;11.57;2.47;;;;;;;9.22;100.00;93668.31;2115909;27;20476;-81
2023/10/09 05:36:31;;;;;;;5.20;1.77;;;;;;;9.37;100.00;93668.19;2096723;28;20035;-82
2023/10/09 05:37:33;;;;;;;7.95;2.00;;;;;;;9.39;100.00;93676.56;2070851;28;20030;-82
2023/10/09 05:38:44;;;;;;;14.68;2.88;;;;;;;9.51;100.00;93671.50;2062576;28;20030;-83
2023/10/09 05:40:08;;;;;;;15.73;2.30;;;;;;;9.57;100.00;93674.53;2072042;28;20037;-84
2023/10/09 05:41:31;;;;;;;8.18;1.80;;;;;;;9.56;100.00;93679.06;2070961;28;20032;-83